createdAt,value
2022-08-04T00:00:23.960Z,35.46
2022-08-04T00:03:25.043Z,35.84
2022-08-04T00:06:44.454Z,35.82
2022-08-04T00:09:35.836Z,35.58
2022-08-04T00:12:29.461Z,35.62
2022-08-04T00:15:18.164Z,35.52
2022-08-04T00:18:06.030Z,35.50
2022-08-04T00:20:56.012Z,35.83
2022-08-04T00:24:10.549Z,35.77
2022-08-04T00:26:53.875Z,35.73
2022-08-04T00:29:40.276Z,35.81
2022-08-04T00:32:34.479Z,35.75
2022-08-04T00:35:21.022Z,35.83
2022-08-04T00:38:08.792Z,35.84
2022-08-04T00:40:57.977Z,35.74
2022-08-04T00:44:02.497Z,35.86
2022-08-04T00:47:00.826Z,35.98
2022-08-04T00:50:05.636Z,35.86
2022-08-04T00:53:07.302Z,36.29
2022-08-04T00:56:12.283Z,36.13
2022-08-04T00:59:13.996Z,36.35
2022-08-04T01:02:07.142Z,36.24
2022-08-04T01:04:56.114Z,36.48
2022-08-04T01:08:13.508Z,36.40
2022-08-04T01:11:57.008Z,36.44
2022-08-04T01:15:10.641Z,36.65
2022-08-04T01:18:06.474Z,36.77
2022-08-04T01:21:02.887Z,36.90
2022-08-04T01:24:16.446Z,36.90
2022-08-04T01:27:14.294Z,36.92
2022-08-04T01:30:00.306Z,36.66
2022-08-04T01:32:54.215Z,36.89
2022-08-04T01:35:49.344Z,36.88
2022-08-04T01:38:37.376Z,36.77
2022-08-04T01:41:32.580Z,36.82
2022-08-04T01:44:19.650Z,36.96
2022-08-04T01:47:07.390Z,36.79
2022-08-04T01:49:55.058Z,36.76
2022-08-04T01:52:45.523Z,36.93
2022-08-04T01:55:54.236Z,36.87
2022-08-04T01:58:41.846Z,37.09
2022-08-04T02:01:28.042Z,37.48
2022-08-04T02:04:23.439Z,37.41
2022-08-04T02:07:33.834Z,37.50
2022-08-04T02:10:41.879Z,37.48
2022-08-04T02:13:40.142Z,37.33
2022-08-04T02:16:52.249Z,37.37
2022-08-04T02:20:09.189Z,38.48
2022-08-04T02:22:59.178Z,37.49
2022-08-04T02:25:58.571Z,37.96
2022-08-04T02:28:55.391Z,37.20
2022-08-04T02:32:00.614Z,37.24
2022-08-04T02:34:55.356Z,37.39
2022-08-04T02:37:48.213Z,37.50
2022-08-04T02:40:34.774Z,37.41
2022-08-04T02:43:50.138Z,37.39
2022-08-04T02:46:28.257Z,37.53
2022-08-04T02:49:15.134Z,37.49
2022-08-04T02:52:01.601Z,37.75
2022-08-04T02:54:51.701Z,37.66
2022-08-04T02:57:38.159Z,37.88
2022-08-04T03:00:24.412Z,37.67
2022-08-04T03:03:21.662Z,37.51
2022-08-04T03:06:11.485Z,38.07
2022-08-04T03:09:16.852Z,38.10
2022-08-04T03:12:13.383Z,37.79
2022-08-04T03:15:27.637Z,37.85
2022-08-04T03:18:22.587Z,37.91
2022-08-04T03:21:14.770Z,38.26
2022-08-04T03:24:25.232Z,37.82
2022-08-04T03:27:16.385Z,38.17
2022-08-04T03:30:14.472Z,38.25
2022-08-04T03:33:20.401Z,38.08
2022-08-04T03:36:31.853Z,38.13
2022-08-04T03:39:36.599Z,38.20
2022-08-04T03:42:22.429Z,38.43
2022-08-04T03:45:24.476Z,38.53
2022-08-04T03:48:19.391Z,38.31
2022-08-04T03:51:36.526Z,38.52
2022-08-04T03:54:44.734Z,38.55
2022-08-04T03:57:42.565Z,38.32
2022-08-04T04:00:40.970Z,38.49
2022-08-04T04:03:45.829Z,38.61
2022-08-04T04:06:54.217Z,38.49
2022-08-04T04:10:15.650Z,38.54
2022-08-04T04:13:15.930Z,38.63
2022-08-04T04:16:13.988Z,38.52
2022-08-04T04:19:37.770Z,38.88
2022-08-04T04:22:42.174Z,39.05
2022-08-04T04:26:21.921Z,38.82
2022-08-04T04:29:19.498Z,38.95
2022-08-04T04:32:29.001Z,38.89
2022-08-04T04:35:54.273Z,38.75
2022-08-04T04:39:11.425Z,39.20
2022-08-04T04:42:22.264Z,39.11
2022-08-04T04:45:25.154Z,39.26
2022-08-04T04:48:29.792Z,39.28
2022-08-04T04:51:24.327Z,39.85
2022-08-04T04:54:16.360Z,39.17
2022-08-04T04:57:08.191Z,39.19
2022-08-04T04:59:57.410Z,39.35
2022-08-04T05:03:17.682Z,39.22
2022-08-04T05:06:30.548Z,39.56
2022-08-04T05:09:35.390Z,39.62
2022-08-04T05:14:32.460Z,39.18
2022-08-04T05:15:36.293Z,39.06
2022-08-04T05:18:27.497Z,39.08
2022-08-04T05:21:34.159Z,38.89
2022-08-04T05:24:22.509Z,39.11
2022-08-04T05:27:30.032Z,39.01
2022-08-04T05:30:15.890Z,38.97
2022-08-04T05:33:09.903Z,39.02
2022-08-04T05:36:18.590Z,39.39
2022-08-04T05:39:08.010Z,39.05
2022-08-04T05:41:58.547Z,39.40
2022-08-04T05:44:51.399Z,39.19
2022-08-04T05:47:37.925Z,39.00
2022-08-04T05:50:24.865Z,38.93
2022-08-04T05:53:11.630Z,39.03
2022-08-04T05:55:59.986Z,39.00
2022-08-04T05:58:46.577Z,38.57
2022-08-04T06:01:33.513Z,38.85
2022-08-04T06:04:41.471Z,38.56
2022-08-04T06:07:27.910Z,38.85
2022-08-04T06:10:14.100Z,38.92
2022-08-04T06:13:03.842Z,38.75
2022-08-04T06:15:51.035Z,38.79
2022-08-04T06:20:03.830Z,38.54
2022-08-04T06:21:46.144Z,39.89
2022-08-04T06:24:33.300Z,39.07
2022-08-04T06:27:20.382Z,38.91
2022-08-04T06:30:14.001Z,38.80
2022-08-04T06:33:13.437Z,38.51
2022-08-04T06:36:01.887Z,38.59
2022-08-04T06:38:52.095Z,38.82
2022-08-04T06:42:17.509Z,38.62
2022-08-04T06:44:59.162Z,38.94
2022-08-04T06:47:46.093Z,38.70
2022-08-04T06:51:30.390Z,38.79
2022-08-04T06:53:40.333Z,38.58
2022-08-04T06:56:26.404Z,38.69
2022-08-04T07:06:43.906Z,40.17
2022-08-04T07:09:31.261Z,39.49
2022-08-04T07:12:21.557Z,39.90
2022-08-04T07:15:08.561Z,39.25
2022-08-04T07:18:02.006Z,39.14
2022-08-04T07:20:49.003Z,38.83
2022-08-04T07:23:35.355Z,38.75
2022-08-04T07:26:27.353Z,38.60
2022-08-04T07:29:15.663Z,38.66
2022-08-04T07:32:05.229Z,38.61
2022-08-04T07:34:51.772Z,38.50
2022-08-04T07:37:39.361Z,39.75
2022-08-04T07:40:26.390Z,39.08
2022-08-04T07:43:12.417Z,38.49
2022-08-04T07:45:59.024Z,38.46
2022-08-04T07:48:45.578Z,38.43
2022-08-04T07:51:32.326Z,38.00
2022-08-04T07:54:18.620Z,38.27
2022-08-04T07:57:04.596Z,38.25
2022-08-04T07:59:50.635Z,38.83
2022-08-04T08:02:37.229Z,38.27
2022-08-04T08:05:23.424Z,37.88
2022-08-04T08:08:10.959Z,37.94
2022-08-04T08:10:57.284Z,38.58
2022-08-04T08:13:45.024Z,37.96
2022-08-04T08:16:33.706Z,37.99
2022-08-04T08:19:20.347Z,38.04
2022-08-04T08:22:06.634Z,38.19
2022-08-04T08:24:52.988Z,37.76
2022-08-04T08:27:39.162Z,37.52
2022-08-04T08:30:41.879Z,37.60
2022-08-04T08:33:28.350Z,37.17
2022-08-04T08:36:35.267Z,37.02
2022-08-04T08:39:29.443Z,36.77
2022-08-04T08:42:23.080Z,37.14
2022-08-04T08:45:30.277Z,35.54
2022-08-04T08:48:37.520Z,37.03
2022-08-04T08:51:36.160Z,36.79
2022-08-04T08:54:45.008Z,37.05
2022-08-04T08:57:44.004Z,36.58
2022-08-04T09:01:06.060Z,36.71
2022-08-04T09:04:23.835Z,36.46
2022-08-04T09:07:19.939Z,36.69
2022-08-04T09:10:40.177Z,36.32
2022-08-04T09:13:51.146Z,36.59
2022-08-04T09:16:43.332Z,36.63
2022-08-04T09:19:38.066Z,36.29
2022-08-04T09:22:45.616Z,36.10
2022-08-04T09:25:41.493Z,34.77
2022-08-04T09:28:52.758Z,35.78
2022-08-04T09:32:06.318Z,35.77
2022-08-04T09:35:16.256Z,35.51
2022-08-04T09:38:28.838Z,35.34
2022-08-04T09:41:52.846Z,35.36
2022-08-04T09:45:04.909Z,35.08
2022-08-04T09:48:21.901Z,34.91
2022-08-04T09:51:17.337Z,34.82
2022-08-04T09:54:30.588Z,35.11
2022-08-04T09:57:39.332Z,34.85
2022-08-04T10:00:40.405Z,34.85
2022-08-04T10:03:31.840Z,34.82
2022-08-04T10:06:42.400Z,34.51
2022-08-04T10:10:06.345Z,34.06
2022-08-04T10:13:08.688Z,34.25
2022-08-04T10:16:12.119Z,34.29
2022-08-04T10:19:31.724Z,34.53
2022-08-04T10:22:44.670Z,34.12
2022-08-04T10:26:06.837Z,33.64
2022-08-04T10:29:01.269Z,33.59
2022-08-04T10:32:03.703Z,33.69
2022-08-04T10:35:05.135Z,33.65
2022-08-04T10:38:18.337Z,33.14
2022-08-04T10:41:21.991Z,33.31
2022-08-04T10:44:42.236Z,31.95
2022-08-04T10:47:35.494Z,32.97
2022-08-04T10:50:24.817Z,33.19
2022-08-04T10:53:14.436Z,33.10
2022-08-04T10:56:09.829Z,32.70
2022-08-04T10:59:01.511Z,32.52
2022-08-04T11:02:01.518Z,32.25
2022-08-04T11:05:00.136Z,29.55
2022-08-04T11:07:50.884Z,31.58
2022-08-04T11:10:46.239Z,31.57
2022-08-04T11:52:06.969Z,33.53
2022-08-04T11:54:54.920Z,32.35
2022-08-04T11:57:41.710Z,32.13
2022-08-04T12:00:30.292Z,31.83
2022-08-04T12:03:16.102Z,31.62
2022-08-04T12:06:11.310Z,30.72
2022-08-04T12:09:03.916Z,25.92
2022-08-04T12:12:23.734Z,30.10
2022-08-04T12:15:24.234Z,30.06
2022-08-04T12:18:40.031Z,30.18
2022-08-04T12:21:32.059Z,29.98
2022-08-04T12:24:22.527Z,29.79
2022-08-04T12:27:31.875Z,29.62
2022-08-04T12:30:57.556Z,29.28
2022-08-04T12:34:05.349Z,29.07
2022-08-04T12:37:03.609Z,28.85
2022-08-04T12:40:28.750Z,28.65
2022-08-04T12:43:09.278Z,28.60
2022-08-04T12:46:04.085Z,28.50
2022-08-04T12:48:50.654Z,28.13
2022-08-04T12:52:07.586Z,28.18
2022-08-04T12:54:51.417Z,28.33
2022-08-04T12:57:37.982Z,28.28
2022-08-04T13:00:33.146Z,28.27
2022-08-04T13:03:24.444Z,28.27
2022-08-04T13:06:12.347Z,28.11
2022-08-04T13:09:26.922Z,22.86
2022-08-04T13:12:23.060Z,26.66
2022-08-04T13:15:18.177Z,26.93
2022-08-04T13:18:14.713Z,26.45
2022-08-04T13:21:21.200Z,26.29
2022-08-04T13:24:21.359Z,25.74
2022-08-04T13:27:17.574Z,26.37
2022-08-04T13:30:04.219Z,25.48
2022-08-04T13:32:58.117Z,25.69
2022-08-04T13:35:55.324Z,25.59
2022-08-04T13:38:50.917Z,24.89
2022-08-04T13:41:40.948Z,25.59
2022-08-04T13:44:33.120Z,26.08
2022-08-04T13:47:31.840Z,25.53
2022-08-04T13:50:20.846Z,24.87
2022-08-04T13:53:06.581Z,24.99
2022-08-04T13:56:00.477Z,24.90
2022-08-04T13:58:48.051Z,24.77
2022-08-04T14:01:36.291Z,24.94
2022-08-04T14:04:25.059Z,24.88
2022-08-04T14:07:18.022Z,24.82
2022-08-04T14:10:14.475Z,24.36
2022-08-04T14:13:04.863Z,24.19
2022-08-04T14:16:02.540Z,24.10
2022-08-04T14:18:59.957Z,23.63
2022-08-04T14:21:46.047Z,24.04
2022-08-04T14:24:32.106Z,23.50
2022-08-04T14:27:18.305Z,23.58
2022-08-04T14:30:04.574Z,23.05
2022-08-04T14:34:00.474Z,22.91
2022-08-04T14:36:15.763Z,22.64
2022-08-04T14:39:01.879Z,22.64
2022-08-04T14:41:49.134Z,22.64
2022-08-04T14:44:55.896Z,22.75
2022-08-04T14:47:52.943Z,22.40
2022-08-04T14:50:44.176Z,22.28
2022-08-04T14:53:29.938Z,22.05
2022-08-04T14:56:37.570Z,21.44
2022-08-04T14:59:22.727Z,21.62
2022-08-04T15:02:09.351Z,21.70
2022-08-04T15:04:55.675Z,21.83
2022-08-04T15:07:41.853Z,21.49
2022-08-04T15:10:28.152Z,20.99
2022-08-04T15:13:14.538Z,21.06
2022-08-04T15:16:06.995Z,20.96
2022-08-04T15:18:55.061Z,21.12
2022-08-04T15:21:43.328Z,20.84
2022-08-04T15:24:29.070Z,20.24
2022-08-04T15:27:16.126Z,20.30
2022-08-04T15:30:04.785Z,20.24
2022-08-04T15:32:53.617Z,20.12
2022-08-04T15:35:40.921Z,19.90
2022-08-04T15:38:38.484Z,19.25
2022-08-04T15:41:32.145Z,20.41
2022-08-04T15:44:50.495Z,19.77
2022-08-04T15:47:36.587Z,20.13
2022-08-04T15:50:27.934Z,19.74
2022-08-04T15:53:14.395Z,20.78
2022-08-04T15:56:27.787Z,20.43
2022-08-04T15:59:14.278Z,20.34
2022-08-04T16:02:32.288Z,20.39
2022-08-04T16:05:21.485Z,20.57
2022-08-04T16:08:12.672Z,20.10
2022-08-04T16:10:58.992Z,20.46
2022-08-04T16:14:06.621Z,20.04
2022-08-04T16:16:52.531Z,20.62
2022-08-04T16:19:41.466Z,20.44
2022-08-04T16:22:39.630Z,20.66
2022-08-04T16:25:48.279Z,20.34
2022-08-04T16:28:40.935Z,20.39
2022-08-04T16:31:26.844Z,20.63
2022-08-04T16:34:49.044Z,20.49
2022-08-04T16:37:20.570Z,20.70
2022-08-04T16:40:33.278Z,20.88
2022-08-04T16:43:22.995Z,20.99
2022-08-04T16:46:18.417Z,20.82
2022-08-04T16:49:07.741Z,21.06
2022-08-04T16:51:55.038Z,21.02
2022-08-04T16:54:41.591Z,21.37
2022-08-04T16:57:27.899Z,21.11
2022-08-04T17:00:14.751Z,21.32
2022-08-04T17:03:05.689Z,21.23
2022-08-04T17:06:06.502Z,21.62
2022-08-04T17:08:52.704Z,21.71
2022-08-04T17:11:38.752Z,21.85
2022-08-04T17:14:27.674Z,21.90
2022-08-04T17:17:13.565Z,21.94
2022-08-04T17:19:59.643Z,22.13
2022-08-04T17:22:45.579Z,22.18
2022-08-04T17:25:52.003Z,22.48
2022-08-04T17:28:47.422Z,22.30
2022-08-04T17:31:35.865Z,21.87
2022-08-04T17:34:22.040Z,22.24
2022-08-04T17:37:38.462Z,22.10
2022-08-04T17:44:04.223Z,22.30
2022-08-04T17:46:52.995Z,22.51
2022-08-04T17:49:52.948Z,22.26
2022-08-04T17:52:44.484Z,22.57
2022-08-04T17:55:47.025Z,22.58
2022-08-04T17:58:33.468Z,22.84
2022-08-04T18:01:26.228Z,22.64
2022-08-04T18:04:34.674Z,22.98
2022-08-04T18:08:34.748Z,23.16
2022-08-04T18:10:51.583Z,23.03
2022-08-04T18:13:43.362Z,22.92
2022-08-04T18:16:29.920Z,23.02
2022-08-04T18:19:18.968Z,23.33
2022-08-04T18:22:09.062Z,23.20
2022-08-04T18:25:04.156Z,23.09
2022-08-04T18:27:55.570Z,23.33
2022-08-04T18:33:59.022Z,23.53
2022-08-04T18:36:55.431Z,23.51
2022-08-04T18:40:10.690Z,23.52
2022-08-04T18:42:50.432Z,23.37
2022-08-04T18:45:36.702Z,23.67
2022-08-04T18:48:23.064Z,23.72
2022-08-04T18:51:24.906Z,23.59
2022-08-04T18:54:11.702Z,23.83
2022-08-04T18:57:24.477Z,23.63
2022-08-04T19:00:05.005Z,24.02
2022-08-04T19:02:51.438Z,24.08
2022-08-04T19:05:38.227Z,24.22
2022-08-04T19:08:33.040Z,24.28
2022-08-04T19:11:38.639Z,24.31
2022-08-04T19:14:28.341Z,24.50
2022-08-04T19:17:14.716Z,24.33
2022-08-04T19:20:25.551Z,24.68
2022-08-04T19:24:10.837Z,25.03
2022-08-04T19:26:36.601Z,24.96
2022-08-04T19:29:22.722Z,25.16
2022-08-04T19:32:15.184Z,25.08
2022-08-04T19:35:01.949Z,25.18
2022-08-04T19:37:58.258Z,25.51
2022-08-04T19:40:52.393Z,25.46
2022-08-04T19:43:43.563Z,25.56
2022-08-04T19:46:29.997Z,26.02
2022-08-04T19:50:03.045Z,25.99
2022-08-04T19:52:33.832Z,25.70
2022-08-04T19:55:22.762Z,25.97
2022-08-04T19:58:25.920Z,26.07
2022-08-04T20:01:31.226Z,25.93
2022-08-04T20:04:19.589Z,25.93
2022-08-04T20:07:08.730Z,26.22
2022-08-04T20:10:04.262Z,26.50
2022-08-04T20:12:55.586Z,26.66
2022-08-04T20:15:58.000Z,26.66
2022-08-04T20:18:55.455Z,26.65
2022-08-04T20:21:55.090Z,26.81
2022-08-04T20:24:49.258Z,26.97
2022-08-04T20:27:51.740Z,27.02
2022-08-04T20:30:45.768Z,26.78
2022-08-04T20:33:31.832Z,26.89
2022-08-04T20:36:21.170Z,27.11
2022-08-04T20:39:09.850Z,27.56
2022-08-04T20:41:56.401Z,27.70
2022-08-04T20:44:46.910Z,27.44
2022-08-04T20:47:35.361Z,27.89
2022-08-04T20:50:29.855Z,27.88
2022-08-04T20:53:17.383Z,27.98
2022-08-04T20:56:03.578Z,27.91
2022-08-04T20:58:52.737Z,28.27
2022-08-04T21:01:39.764Z,28.39
2022-08-04T21:04:31.722Z,28.47
2022-08-04T21:07:18.431Z,28.64
2022-08-04T21:10:05.015Z,28.42
2022-08-04T21:12:51.829Z,28.81
2022-08-04T21:15:57.757Z,28.92
2022-08-04T21:18:45.192Z,28.73
2022-08-04T21:21:35.592Z,28.85
2022-08-04T21:24:26.258Z,29.19
2022-08-04T21:27:13.039Z,29.05
2022-08-04T21:30:00.002Z,29.18
2022-08-04T21:32:45.762Z,29.28
2022-08-04T21:35:38.295Z,29.33
2022-08-04T21:38:28.210Z,29.56
2022-08-04T21:41:24.473Z,29.72
2022-08-04T21:44:12.974Z,29.87
2022-08-04T21:46:59.055Z,29.92
2022-08-04T21:49:55.869Z,29.99
2022-08-04T21:52:43.405Z,29.79
2022-08-04T21:56:04.798Z,30.12
2022-08-04T21:58:38.154Z,30.38
2022-08-04T22:01:50.515Z,30.38
2022-08-04T22:04:30.995Z,30.70
2022-08-04T22:07:17.497Z,30.58
2022-08-04T22:10:09.297Z,30.38
2022-08-04T22:12:55.814Z,30.86
2022-08-04T22:16:05.367Z,30.64
2022-08-04T22:18:50.990Z,30.80
2022-08-04T22:21:46.541Z,30.98
2022-08-04T22:24:32.588Z,30.93
2022-08-04T22:27:36.961Z,30.99
2022-08-04T22:30:24.113Z,31.26
2022-08-04T22:33:10.490Z,31.38
2022-08-04T22:35:57.906Z,31.41
2022-08-04T22:38:48.628Z,31.44
2022-08-04T22:41:48.808Z,31.54
2022-08-04T22:44:43.200Z,31.46
2022-08-04T22:47:30.430Z,31.64
2022-08-04T22:50:27.621Z,31.98
2022-08-04T22:53:18.062Z,31.87
2022-08-04T22:56:09.665Z,31.92
2022-08-04T22:58:56.960Z,31.93
2022-08-04T23:01:59.014Z,32.04
2022-08-04T23:04:49.954Z,32.21
2022-08-04T23:07:49.015Z,32.11
2022-08-04T23:10:36.282Z,32.44
2022-08-04T23:13:22.630Z,32.36
2022-08-04T23:16:10.388Z,32.58
2022-08-04T23:18:56.841Z,32.71
2022-08-04T23:21:47.264Z,32.63
2022-08-04T23:24:34.596Z,32.85
2022-08-04T23:27:20.816Z,32.88
2022-08-04T23:30:07.647Z,32.85
2022-08-04T23:32:53.844Z,32.88
2022-08-04T23:35:39.928Z,32.87
2022-08-04T23:38:31.376Z,33.49
2022-08-04T23:41:18.776Z,33.10
2022-08-04T23:44:06.041Z,33.15
2022-08-04T23:47:03.282Z,33.44
2022-08-04T23:49:49.551Z,33.35
2022-08-04T23:52:35.376Z,33.58
2022-08-04T23:55:21.460Z,33.38
2022-08-04T23:58:18.818Z,33.80
